Time;durP1;ratioP1;P1;durP2;ratioP2;P2;SDS_P1;SDS_P2;PMS_P1;PMS_P2;Temp;Humidity;BMP_temperature;BMP_pressure;BME280_temperature;BME280_humidity;BME280_pressure;Samples;Min_cycle;Max_cycle;Signal;HPM_P1;HPM_P2
2023/12/03 00:01:20;;;;;;;;;;;;;;;;;;4980980;28;59095;-70
2023/12/03 00:03:45;;;;;;;;;;;;;;;;;;4982799;28;59624;-69
2023/12/03 00:06:10;;;;;;;;;;;;;;;;;;4982822;28;58611;-70
2023/12/03 00:08:35;;;;;;;;;;;;;;;;;;4983521;28;58640;-69
2023/12/03 00:11:01;;;;;;;;;;;;;;;;;;4984512;28;59514;-76
2023/12/03 00:13:26;;;;;;;;;;;;;;;;;;4981038;28;59931;-78
2023/12/03 00:15:51;;;;;;;;;;;;;;;;;;4982545;28;58490;-73
2023/12/03 00:18:16;;;;;;;;;;;;;;;;;;4983262;28;59479;-72
2023/12/03 00:20:41;;;;;;;;;;;;;;;;;;4981314;28;58962;-72
2023/12/03 00:23:06;;;;;;;;;;;;;;;;;;4985325;28;58453;-72
2023/12/03 00:25:31;;;;;;;;;;;;;;;;;;4981523;28;58654;-71
2023/12/03 00:27:56;;;;;;;;;;;;;;;;;;4983225;28;58401;-75
2023/12/03 00:30:21;;;;;;;;;;;;;;;;;;4982763;28;60244;-76
2023/12/03 00:32:46;;;;;;;;;;;;;;;;;;4981039;28;58810;-76
2023/12/03 00:35:14;;;;;;;;;;;;;;;;;;4984876;28;58403;-75
2023/12/03 00:37:39;;;;;;;;;;;;;;;;;;4980434;28;60797;-75
2023/12/03 00:40:04;;;;;;;;;;;;;;;;;;4981115;28;58908;-75
2023/12/03 00:42:29;;;;;;;;;;;;;;;;;;4981529;28;58467;-75
2023/12/03 00:44:54;;;;;;;;;;;;;;;;;;4983424;28;58786;-75
2023/12/03 00:47:19;;;;;;;;;;;;;;;;;;4983847;28;58609;-75
2023/12/03 00:49:44;;;;;;;;;;;;;;;;;;4983483;28;59294;-75
2023/12/03 00:52:09;;;;;;;;;;;;;;;;;;4980735;28;60110;-75
2023/12/03 00:54:34;;;;;;;;;;;;;;;;;;4981986;28;58497;-76
2023/12/03 00:56:59;;;;;;;;;;;;;;;;;;4980380;28;60241;-74
2023/12/03 00:59:25;;;;;;;;;;;;;;;;;;4981998;28;58912;-74
2023/12/03 01:01:50;;;;;;;;;;;;;;;;;;4981714;28;58477;-76
2023/12/03 01:04:15;;;;;;;;;;;;;;;;;;4983277;28;58586;-75
2023/12/03 01:06:40;;;;;;;;;;;;;;;;;;4980203;28;58553;-75
2023/12/03 01:09:08;;;;;;;;;;;;;;;;;;4981891;28;59548;-75
2023/12/03 01:11:33;;;;;;;;;;;;;;;;;;4980320;28;58589;-73
2023/12/03 01:13:58;;;;;;;;;;;;;;;;;;4983548;28;58493;-74
2023/12/03 01:16:23;;;;;;;;;;;;;;;;;;4982748;28;58445;-74
2023/12/03 01:18:48;;;;;;;;;;;;;;;;;;4980807;28;60042;-75
2023/12/03 01:21:14;;;;;;;;;;;;;;;;;;4982711;28;58407;-75
2023/12/03 01:23:39;;;;;;;;;;;;;;;;;;4983435;28;59502;-75
2023/12/03 01:26:04;;;;;;;;;;;;;;;;;;4982792;28;59507;-73
2023/12/03 01:28:29;;;;;;;;;;;;;;;;;;4988212;28;58361;-75
2023/12/03 01:30:54;;;;;;;;;;;;;;;;;;4988135;28;58931;-76
2023/12/03 01:33:19;;;;;;;;;;;;;;;;;;4986888;28;58498;-76
2023/12/03 01:35:44;;;;;;;;;;;;;;;;;;4987150;28;60406;-76
2023/12/03 01:38:09;;;;;;;;;;;;;;;;;;4989915;28;58462;-76
2023/12/03 01:40:34;;;;;;;;;;;;;;;;;;4986141;28;58553;-76
2023/12/03 01:42:59;;;;;;;;;;;;;;;;;;4988842;28;59254;-74
2023/12/03 01:45:25;;;;;;;;;;;;;;;;;;4988033;28;59852;-73
2023/12/03 01:47:50;;;;;;;;;;;;;;;;;;4988086;28;58288;-77
2023/12/03 01:50:15;;;;;;;;;;;;;;;;;;4986261;28;58936;-78
2023/12/03 01:52:40;;;;;;;;;;;;;;;;;;4988626;28;58360;-77
2023/12/03 01:55:05;;;;;;;;;;;;;;;;;;4989994;28;58383;-76
2023/12/03 01:57:30;;;;;;;;;;;;;;;;;;4988184;28;59824;-80
2023/12/03 01:59:55;;;;;;;;;;;;;;;;;;4987121;28;58371;-75
2023/12/03 02:02:20;;;;;;;;;;;;;;;;;;4987142;28;59454;-74
2023/12/03 02:04:45;;;;;;;;;;;;;;;;;;4987694;28;58885;-75
2023/12/03 02:07:10;;;;;;;;;;;;;;;;;;4989701;28;58384;-74
2023/12/03 02:09:35;;;;;;;;;;;;;;;;;;4987242;28;59824;-74
2023/12/03 02:12:01;;;;;;;;;;;;;;;;;;4986878;28;58371;-74
2023/12/03 02:14:26;;;;;;;;;;;;;;;;;;4988125;28;59440;-74
2023/12/03 02:16:51;;;;;;;;;;;;;;;;;;4985458;28;58942;-73
2023/12/03 02:19:16;;;;;;;;;;;;;;;;;;4987124;28;58561;-74
2023/12/03 02:21:41;;;;;;;;;;;;;;;;;;4986513;28;59427;-74
2023/12/03 02:24:06;;;;;;;;;;;;;;;;;;4987080;28;59709;-74
2023/12/03 02:26:31;;;;;;;;;;;;;;;;;;4983349;28;58463;-76
2023/12/03 02:28:56;;;;;;;;;;;;;;;;;;4988885;28;59540;-75
2023/12/03 02:31:21;;;;;;;;;;;;;;;;;;4985281;28;58342;-74
2023/12/03 02:33:46;;;;;;;;;;;;;;;;;;4988415;28;59472;-73
2023/12/03 02:36:11;;;;;;;;;;;;;;;;;;4987648;28;58822;-75
2023/12/03 02:38:36;;;;;;;;;;;;;;;;;;4985956;28;58449;-74
2023/12/03 02:41:01;;;;;;;;;;;;;;;;;;4984440;28;60394;-73
2023/12/03 02:43:27;;;;;;;;;;;;;;;;;;4983637;28;58477;-72
2023/12/03 02:45:52;;;;;;;;;;;;;;;;;;4984687;28;58386;-73
2023/12/03 02:48:17;;;;;;;;;;;;;;;;;;4984747;28;59340;-73
2023/12/03 02:50:42;;;;;;;;;;;;;;;;;;4983274;28;58779;-73
2023/12/03 02:53:07;;;;;;;;;;;;;;;;;;4986301;28;58343;-73
2023/12/03 02:55:32;;;;;;;;;;;;;;;;;;4982316;28;58830;-73
2023/12/03 02:57:57;;;;;;;;;;;;;;;;;;4985856;28;58413;-73
2023/12/03 03:00:22;;;;;;;;;;;;;;;;;;4984059;28;60378;-73
2023/12/03 03:02:47;;;;;;;;;;;;;;;;;;4983468;28;59787;-73
2023/12/03 03:05:12;;;;;;;;;;;;;;;;;;4983899;28;58436;-73
2023/12/03 03:07:38;;;;;;;;;;;;;;;;;;4984280;28;59408;-73
2023/12/03 03:10:03;;;;;;;;;;;;;;;;;;4984033;28;58957;-73
2023/12/03 03:12:28;;;;;;;;;;;;;;;;;;4983436;28;58456;-73
2023/12/03 03:14:53;;;;;;;;;;;;;;;;;;4983989;28;58446;-72
2023/12/03 03:17:18;;;;;;;;;;;;;;;;;;4985017;28;58415;-73
2023/12/03 03:19:43;;;;;;;;;;;;;;;;;;4982076;28;59784;-72
2023/12/03 03:22:08;;;;;;;;;;;;;;;;;;4984255;28;58945;-72
2023/12/03 03:24:33;;;;;;;;;;;;;;;;;;4983809;28;58525;-72
2023/12/03 03:26:58;;;;;;;;;;;;;;;;;;4983192;28;59462;-73
2023/12/03 03:29:24;;;;;;;;;;;;;;;;;;4983908;28;59337;-72
2023/12/03 03:31:50;;;;;;;;;;;;;;;;;;4984797;28;58160;-72
2023/12/03 03:34:15;;;;;;;;;;;;;;;;;;4983703;28;58430;-72
2023/12/03 03:36:40;;;;;;;;;;;;;;;;;;4985648;28;58988;-72
2023/12/03 03:39:05;;;;;;;;;;;;;;;;;;4986398;28;59428;-72
2023/12/03 03:41:30;;;;;;;;;;;;;;;;;;4982179;28;58814;-72
2023/12/03 03:43:55;;;;;;;;;;;;;;;;;;4986213;28;58443;-74
2023/12/03 03:46:20;;;;;;;;;;;;;;;;;;4986330;28;59331;-73
2023/12/03 03:48:45;;;;;;;;;;;;;;;;;;4982786;28;58780;-73
2023/12/03 03:51:10;;;;;;;;;;;;;;;;;;4982929;28;58631;-74
2023/12/03 03:53:35;;;;;;;;;;;;;;;;;;4985098;28;59377;-73
2023/12/03 03:56:00;;;;;;;;;;;;;;;;;;4984949;28;58863;-73
2023/12/03 03:58:25;;;;;;;;;;;;;;;;;;4983454;28;59421;-73
2023/12/03 04:00:50;;;;;;;;;;;;;;;;;;4982714;28;58937;-73
2023/12/03 04:03:16;;;;;;;;;;;;;;;;;;4984038;28;58403;-73
2023/12/03 04:05:41;;;;;;;;;;;;;;;;;;4983413;28;61101;-73
2023/12/03 04:08:07;;;;;;;;;;;;;;;;;;4982596;28;58793;-73
2023/12/03 04:10:32;;;;;;;;;;;;;;;;;;4964658;28;59848;-73
2023/12/03 04:12:57;;;;;;;;;;;;;;;;;;4963820;28;59453;-73
2023/12/03 04:15:22;;;;;;;;;;;;;;;;;;4972976;28;58927;-73
2023/12/03 04:17:47;;;;;;;;;;;;;;;;;;4981812;28;58492;-73
2023/12/03 04:20:12;;;;;;;;;;;;;;;;;;4983106;28;60478;-73
2023/12/03 04:22:37;;;;;;;;;;;;;;;;;;4982966;28;58223;-73
2023/12/03 04:25:02;;;;;;;;;;;;;;;;;;4983240;28;59261;-73
2023/12/03 04:27:27;;;;;;;;;;;;;;;;;;4982023;28;58354;-72
2023/12/03 04:29:52;;;;;;;;;;;;;;;;;;4983710;28;58472;-73
2023/12/03 04:32:17;;;;;;;;;;;;;;;;;;4983249;28;58721;-72
2023/12/03 04:34:42;;;;;;;;;;;;;;;;;;4983037;28;58373;-73
2023/12/03 04:37:07;;;;;;;;;;;;;;;;;;4983870;28;58422;-73
2023/12/03 04:39:34;;;;;;;;;;;;;;;;;;4984201;28;58514;-73
2023/12/03 04:41:59;;;;;;;;;;;;;;;;;;4984267;28;58497;-73
2023/12/03 04:44:24;;;;;;;;;;;;;;;;;;4984286;28;59440;-72
2023/12/03 04:46:49;;;;;;;;;;;;;;;;;;4984191;28;58849;-72
2023/12/03 04:49:14;;;;;;;;;;;;;;;;;;4985609;28;58384;-72
2023/12/03 04:51:40;;;;;;;;;;;;;;;;;;4981366;28;59381;-71
2023/12/03 04:54:05;;;;;;;;;;;;;;;;;;4983847;28;58653;-72
2023/12/03 04:56:30;;;;;;;;;;;;;;;;;;4981342;28;58392;-71
2023/12/03 04:58:55;;;;;;;;;;;;;;;;;;4983937;28;59825;-72
2023/12/03 05:01:20;;;;;;;;;;;;;;;;;;4979711;28;59299;-72
2023/12/03 05:03:45;;;;;;;;;;;;;;;;;;4980731;28;59409;-72
2023/12/03 05:06:10;;;;;;;;;;;;;;;;;;4981104;28;59032;-72
2023/12/03 05:08:35;;;;;;;;;;;;;;;;;;4982494;28;57923;-71
2023/12/03 05:11:00;;;;;;;;;;;;;;;;;;4983179;28;58497;-72
2023/12/03 05:13:26;;;;;;;;;;;;;;;;;;4981037;28;58919;-72
2023/12/03 05:15:51;;;;;;;;;;;;;;;;;;4980812;28;58438;-72
2023/12/03 05:18:16;;;;;;;;;;;;;;;;;;4981844;28;59493;-72
2023/12/03 05:20:41;;;;;;;;;;;;;;;;;;4979015;28;61192;-71
2023/12/03 05:23:06;;;;;;;;;;;;;;;;;;4984989;28;58495;-72
2023/12/03 05:25:31;;;;;;;;;;;;;;;;;;4980384;28;58839;-72
2023/12/03 05:27:56;;;;;;;;;;;;;;;;;;4981718;28;58524;-72
2023/12/03 05:30:22;;;;;;;;;;;;;;;;;;4980365;28;60082;-72
2023/12/03 05:32:47;;;;;;;;;;;;;;;;;;4979960;28;59690;-72
2023/12/03 05:35:12;;;;;;;;;;;;;;;;;;4982471;28;58355;-72
2023/12/03 05:37:38;;;;;;;;;;;;;;;;;;4982160;28;58424;-72
2023/12/03 05:40:04;;;;;;;;;;;;;;;;;;4980452;28;58953;-72
2023/12/03 05:42:29;;;;;;;;;;;;;;;;;;4980261;28;58410;-72
2023/12/03 05:44:54;;;;;;;;;;;;;;;;;;4982589;28;59204;-72
2023/12/03 05:47:19;;;;;;;;;;;;;;;;;;4979538;28;58628;-72
2023/12/03 05:49:44;;;;;;;;;;;;;;;;;;4983807;28;59363;-72
2023/12/03 05:52:09;;;;;;;;;;;;;;;;;;4979760;28;59056;-72
2023/12/03 05:54:34;;;;;;;;;;;;;;;;;;4980998;28;58433;-72
2023/12/03 05:56:59;;;;;;;;;;;;;;;;;;4981241;28;58525;-72
2023/12/03 05:59:26;;;;;;;;;;;;;;;;;;4978447;28;59875;-72
2023/12/03 06:01:51;;;;;;;;;;;;;;;;;;4979665;28;58432;-71
2023/12/03 06:04:16;;;;;;;;;;;;;;;;;;4978022;28;59308;-72
2023/12/03 06:06:42;;;;;;;;;;;;;;;;;;4978370;28;59141;-71
2023/12/03 06:09:09;;;;;;;;;;;;;;;;;;4981001;28;59643;-72
2023/12/03 06:11:35;;;;;;;;;;;;;;;;;;4976604;28;59206;-72
2023/12/03 06:14:00;;;;;;;;;;;;;;;;;;4981803;28;58469;-72
2023/12/03 06:16:25;;;;;;;;;;;;;;;;;;4982943;28;59544;-71
2023/12/03 06:18:50;;;;;;;;;;;;;;;;;;4979356;28;59147;-71
2023/12/03 06:21:15;;;;;;;;;;;;;;;;;;4982353;28;58446;-72
2023/12/03 06:23:40;;;;;;;;;;;;;;;;;;4983694;28;59849;-72
2023/12/03 06:26:06;;;;;;;;;;;;;;;;;;4984799;28;59213;-72
2023/12/03 06:28:31;;;;;;;;;;;;;;;;;;4985230;28;58385;-72
2023/12/03 06:30:56;;;;;;;;;;;;;;;;;;4981807;28;59745;-72
2023/12/03 06:33:21;;;;;;;;;;;;;;;;;;4985014;28;58295;-72
2023/12/03 06:35:46;;;;;;;;;;;;;;;;;;4984889;28;59264;-72
2023/12/03 06:38:11;;;;;;;;;;;;;;;;;;4985206;28;58904;-72
2023/12/03 06:40:36;;;;;;;;;;;;;;;;;;4983414;28;58600;-71
2023/12/03 06:43:01;;;;;;;;;;;;;;;;;;4984357;28;59637;-72
2023/12/03 06:45:26;;;;;;;;;;;;;;;;;;4982558;28;59774;-72
2023/12/03 06:47:51;;;;;;;;;;;;;;;;;;4985662;28;58501;-71
2023/12/03 06:50:16;;;;;;;;;;;;;;;;;;4983553;28;58936;-72
2023/12/03 06:52:41;;;;;;;;;;;;;;;;;;4982505;28;58351;-72
2023/12/03 06:55:06;;;;;;;;;;;;;;;;;;4984826;28;59462;-72
2023/12/03 06:57:31;;;;;;;;;;;;;;;;;;4982299;28;77577;-72
2023/12/03 06:59:57;;;;;;;;;;;;;;;;;;4982513;28;58402;-72
2023/12/03 07:02:22;;;;;;;;;;;;;;;;;;4982971;28;58466;-72
2023/12/03 07:04:47;;;;;;;;;;;;;;;;;;4983871;28;58020;-72
2023/12/03 07:07:12;;;;;;;;;;;;;;;;;;4984012;28;58343;-70
2023/12/03 07:09:37;;;;;;;;;;;;;;;;;;4984367;28;58902;-70
2023/12/03 07:12:02;;;;;;;;;;;;;;;;;;4985497;28;58381;-70
2023/12/03 07:14:27;;;;;;;;;;;;;;;;;;4985087;28;59743;-72
2023/12/03 07:16:52;;;;;;;;;;;;;;;;;;4984271;28;58899;-72
2023/12/03 07:19:17;;;;;;;;;;;;;;;;;;4984692;28;59634;-72
2023/12/03 07:21:42;;;;;;;;;;;;;;;;;;4983255;28;59471;-72
2023/12/03 07:24:07;;;;;;;;;;;;;;;;;;4984395;28;59779;-73
2023/12/03 07:26:32;;;;;;;;;;;;;;;;;;4982624;28;57864;-72
2023/12/03 07:28:58;;;;;;;;;;;;;;;;;;4981852;28;59459;-73
2023/12/03 07:31:23;;;;;;;;;;;;;;;;;;4982484;28;58965;-72
2023/12/03 07:33:48;;;;;;;;;;;;;;;;;;4983492;28;60300;-73
2023/12/03 07:36:13;;;;;;;;;;;;;;;;;;4984731;28;59016;-72
2023/12/03 07:38:38;;;;;;;;;;;;;;;;;;4984293;28;58408;-73
2023/12/03 07:41:03;;;;;;;;;;;;;;;;;;4981984;28;58697;-73
2023/12/03 07:43:28;;;;;;;;;;;;;;;;;;4983239;28;58791;-72
2023/12/03 07:45:53;;;;;;;;;;;;;;;;;;4983466;28;58524;-74
2023/12/03 07:48:18;;;;;;;;;;;;;;;;;;4983319;28;59289;-73
2023/12/03 07:50:43;;;;;;;;;;;;;;;;;;4982244;28;58851;-74
2023/12/03 07:53:10;;;;;;;;;;;;;;;;;;4985861;28;58125;-74
2023/12/03 07:55:35;;;;;;;;;;;;;;;;;;4982908;28;59028;-73
2023/12/03 07:58:00;;;;;;;;;;;;;;;;;;4982660;28;58331;-73
2023/12/03 08:00:25;;;;;;;;;;;;;;;;;;4982601;28;59415;-73
2023/12/03 08:02:50;;;;;;;;;;;;;;;;;;4983316;28;58945;-74
2023/12/03 08:05:15;;;;;;;;;;;;;;;;;;4984449;28;58802;-74
2023/12/03 08:07:41;;;;;;;;;;;;;;;;;;4982337;28;60372;-74
2023/12/03 08:10:07;;;;;;;;;;;;;;;;;;4983508;28;58902;-74
2023/12/03 08:12:32;;;;;;;;;;;;;;;;;;4983436;28;58665;-73
2023/12/03 08:14:57;;;;;;;;;;;;;;;;;;4982932;28;59657;-74
2023/12/03 08:17:23;;;;;;;;;;;;;;;;;;4983874;28;58380;-73
2023/12/03 08:19:48;;;;;;;;;;;;;;;;;;4983897;28;59504;-73
2023/12/03 08:22:13;;;;;;;;;;;;;;;;;;4982698;28;58443;-74
2023/12/03 08:24:38;;;;;;;;;;;;;;;;;;4982735;28;58414;-73
2023/12/03 08:27:03;;;;;;;;;;;;;;;;;;4982845;28;59764;-74
2023/12/03 08:29:29;;;;;;;;;;;;;;;;;;4980353;28;58932;-74
2023/12/03 08:31:54;;;;;;;;;;;;;;;;;;4983623;28;58145;-74
2023/12/03 08:34:19;;;;;;;;;;;;;;;;;;4983677;28;58559;-73
2023/12/03 08:36:44;;;;;;;;;;;;;;;;;;4981952;28;58434;-73
2023/12/03 08:39:09;;;;;;;;;;;;;;;;;;4983202;28;58835;-72
2023/12/03 08:41:34;;;;;;;;;;;;;;;;;;4980994;28;59094;-74
2023/12/03 08:43:59;;;;;;;;;;;;;;;;;;4983484;28;58605;-73
2023/12/03 08:46:24;;;;;;;;;;;;;;;;;;4982052;28;59744;-72
2023/12/03 08:48:49;;;;;;;;;;;;;;;;;;4981894;28;58511;-74
2023/12/03 08:51:15;;;;;;;;;;;;;;;;;;4982391;28;58525;-73
2023/12/03 08:53:40;;;;;;;;;;;;;;;;;;4982794;28;59531;-74
2023/12/03 08:56:05;;;;;;;;;;;;;;;;;;4983324;28;58318;-74
2023/12/03 08:58:30;;;;;;;;;;;;;;;;;;4982171;28;58428;-73
2023/12/03 09:00:56;;;;;;;;;;;;;;;;;;4979479;28;58944;-73
2023/12/03 09:03:21;;;;;;;;;;;;;;;;;;4980085;28;58450;-73
2023/12/03 09:05:46;;;;;;;;;;;;;;;;;;4981902;28;59446;-74
2023/12/03 09:08:11;;;;;;;;;;;;;;;;;;4981901;28;59256;-74
2023/12/03 09:10:36;;;;;;;;;;;;;;;;;;4983602;28;58557;-74
2023/12/03 09:13:01;;;;;;;;;;;;;;;;;;4981613;28;59604;-73
2023/12/03 09:15:26;;;;;;;;;;;;;;;;;;4982257;28;59209;-73
2023/12/03 09:17:51;;;;;;;;;;;;;;;;;;4981674;28;58473;-73
2023/12/03 09:20:16;;;;;;;;;;;;;;;;;;4981356;28;58541;-73
2023/12/03 09:22:41;;;;;;;;;;;;;;;;;;4981803;28;58614;-74
2023/12/03 09:25:07;;;;;;;;;;;;;;;;;;4981181;28;60563;-73
2023/12/03 09:27:33;;;;;;;;;;;;;;;;;;4979500;28;59027;-74
2023/12/03 09:29:58;;;;;;;;;;;;;;;;;;4982089;28;58505;-73
2023/12/03 09:32:23;;;;;;;;;;;;;;;;;;4981352;28;59891;-73
2023/12/03 09:34:48;;;;;;;;;;;;;;;;;;4980846;28;59850;-73
2023/12/03 09:37:13;;;;;;;;;;;;;;;;;;4983192;28;58379;-74
2023/12/03 09:39:39;;;;;;;;;;;;;;;;;;4983558;28;59758;-73
2023/12/03 09:42:04;;;;;;;;;;;;;;;;;;4980951;28;58481;-73
2023/12/03 09:44:29;;;;;;;;;;;;;;;;;;4981127;28;59479;-73
2023/12/03 09:46:54;;;;;;;;;;;;;;;;;;4979699;28;58934;-73
2023/12/03 09:49:19;;;;;;;;;;;;;;;;;;4984362;28;58554;-73
2023/12/03 09:51:44;;;;;;;;;;;;;;;;;;4983608;28;59448;-73
2023/12/03 09:54:09;;;;;;;;;;;;;;;;;;4984566;28;58659;-74
2023/12/03 09:56:34;;;;;;;;;;;;;;;;;;4984967;28;58513;-73
2023/12/03 09:59:00;;;;;;;;;;;;;;;;;;4986651;28;58418;-73
2023/12/03 10:01:25;;;;;;;;;;;;;;;;;;4985575;28;58474;-73
2023/12/03 10:03:52;;;;;;;;;;;;;;;;;;4985433;28;59550;-74
2023/12/03 10:06:19;;;;;;;;;;;;;;;;;;4983141;28;59246;-75
2023/12/03 10:08:45;;;;;;;;;;;;;;;;;;4984356;28;58497;-73
2023/12/03 10:11:10;;;;;;;;;;;;;;;;;;4986452;28;59553;-73
2023/12/03 10:13:36;;;;;;;;;;;;;;;;;;4983983;28;59804;-74
2023/12/03 10:16:01;;;;;;;;;;;;;;;;;;4984128;28;58496;-74
2023/12/03 10:18:26;;;;;;;;;;;;;;;;;;4985065;28;59260;-74
2023/12/03 10:20:51;;;;;;;;;;;;;;;;;;4981524;28;58388;-74
2023/12/03 10:23:18;;;;;;;;;;;;;;;;;;4983322;28;58423;-74
2023/12/03 10:25:43;;;;;;;;;;;;;;;;;;4981606;28;63127;-72
2023/12/03 10:28:11;;;;;;;;;;;;;;;;;;4982491;28;58492;-73
2023/12/03 10:30:37;;;;;;;;;;;;;;;;;;4983315;28;59441;-73
2023/12/03 10:33:02;;;;;;;;;;;;;;;;;;4984491;28;58842;-74
2023/12/03 10:35:27;;;;;;;;;;;;;;;;;;4983720;28;58374;-74
2023/12/03 10:37:52;;;;;;;;;;;;;;;;;;4985873;28;58548;-73
2023/12/03 10:40:18;;;;;;;;;;;;;;;;;;4985282;28;58618;-73
2023/12/03 10:42:43;;;;;;;;;;;;;;;;;;4986442;28;58469;-73
2023/12/03 10:45:08;;;;;;;;;;;;;;;;;;4985773;28;59843;-76
2023/12/03 10:47:33;;;;;;;;;;;;;;;;;;4987346;28;58387;-76
2023/12/03 10:49:58;;;;;;;;;;;;;;;;;;4985158;28;59376;-75
2023/12/03 10:52:23;;;;;;;;;;;;;;;;;;4983123;28;59836;-72
2023/12/03 10:54:48;;;;;;;;;;;;;;;;;;4984011;28;58382;-76
2023/12/03 10:57:13;;;;;;;;;;;;;;;;;;4984975;28;59492;-75
2023/12/03 10:59:41;;;;;;;;;;;;;;;;;;4980653;28;59081;-73
2023/12/03 11:02:08;;;;;;;;;;;;;;;;;;4980986;28;58473;-74
2023/12/03 11:04:34;;;;;;;;;;;;;;;;;;4985291;28;59507;-73
2023/12/03 11:06:59;;;;;;;;;;;;;;;;;;4982506;28;58438;-76
2023/12/03 11:09:24;;;;;;;;;;;;;;;;;;4984357;28;59300;-74
2023/12/03 11:11:49;;;;;;;;;;;;;;;;;;4980801;28;59216;-74
2023/12/03 11:14:15;;;;;;;;;;;;;;;;;;4983192;28;58743;-78
2023/12/03 11:16:40;;;;;;;;;;;;;;;;;;4982987;28;59383;-75
2023/12/03 11:19:05;;;;;;;;;;;;;;;;;;4982809;28;58966;-73
2023/12/03 11:21:33;;;;;;;;;;;;;;;;;;4982918;28;58434;-74
2023/12/03 11:23:58;;;;;;;;;;;;;;;;;;4981930;28;59348;-75
2023/12/03 11:26:25;;;;;;;;;;;;;;;;;;4985003;28;58426;-74
2023/12/03 11:28:50;;;;;;;;;;;;;;;;;;4983467;28;59363;-75
2023/12/03 11:31:15;;;;;;;;;;;;;;;;;;4982015;28;59033;-75
2023/12/03 11:33:40;;;;;;;;;;;;;;;;;;4980495;28;58435;-75
2023/12/03 11:36:05;;;;;;;;;;;;;;;;;;4978974;28;59835;-75
2023/12/03 11:38:30;;;;;;;;;;;;;;;;;;4979404;28;58895;-74
2023/12/03 11:40:55;;;;;;;;;;;;;;;;;;4979104;28;58544;-76
2023/12/03 11:43:20;;;;;;;;;;;;;;;;;;4979271;28;59457;-79
2023/12/03 11:45:46;;;;;;;;;;;;;;;;;;4981942;28;58943;-75
2023/12/03 11:48:11;;;;;;;;;;;;;;;;;;4980590;28;58556;-73
2023/12/03 11:50:36;;;;;;;;;;;;;;;;;;4981230;28;58828;-75
2023/12/03 11:53:01;;;;;;;;;;;;;;;;;;4982021;28;58376;-74
2023/12/03 11:55:27;;;;;;;;;;;;;;;;;;4982538;28;59176;-74
2023/12/03 11:57:52;;;;;;;;;;;;;;;;;;4981063;28;58999;-76
2023/12/03 12:00:17;;;;;;;;;;;;;;;;;;4980745;28;58460;-75
2023/12/03 12:02:42;;;;;;;;;;;;;;;;;;4979473;28;59490;-74
2023/12/03 12:05:07;;;;;;;;;;;;;;;;;;4979492;28;58857;-75
2023/12/03 12:07:33;;;;;;;;;;;;;;;;;;4979699;28;58666;-76
2023/12/03 12:09:58;;;;;;;;;;;;;;;;;;4979914;28;58895;-76
2023/12/03 12:12:23;;;;;;;;;;;;;;;;;;4979054;28;58453;-74
2023/12/03 12:14:48;;;;;;;;;;;;;;;;;;4980713;28;59389;-77
2023/12/03 12:17:13;;;;;;;;;;;;;;;;;;4981353;28;58769;-76
2023/12/03 12:19:38;;;;;;;;;;;;;;;;;;4979549;28;58441;-77
2023/12/03 12:22:03;;;;;;;;;;;;;;;;;;4980324;28;61132;-76
2023/12/03 12:24:28;;;;;;;;;;;;;;;;;;4980338;28;59910;-77
2023/12/03 12:26:54;;;;;;;;;;;;;;;;;;4980686;28;58772;-76
2023/12/03 12:29:19;;;;;;;;;;;;;;;;;;4978563;28;59302;-77
2023/12/03 12:31:44;;;;;;;;;;;;;;;;;;4982549;28;58546;-73
2023/12/03 12:34:09;;;;;;;;;;;;;;;;;;4980144;28;59341;-74
2023/12/03 12:36:34;;;;;;;;;;;;;;;;;;4980911;28;58403;-72
2023/12/03 12:39:00;;;;;;;;;;;;;;;;;;4981503;28;58573;-74
2023/12/03 12:41:25;;;;;;;;;;;;;;;;;;4978860;28;58532;-75
2023/12/03 12:43:50;;;;;;;;;;;;;;;;;;4979479;28;58965;-74
2023/12/03 12:46:15;;;;;;;;;;;;;;;;;;4980674;28;58383;-73
2023/12/03 12:48:40;;;;;;;;;;;;;;;;;;4979056;28;59375;-74
2023/12/03 12:51:05;;;;;;;;;;;;;;;;;;4978939;28;58620;-73
2023/12/03 12:53:30;;;;;;;;;;;;;;;;;;4980644;28;59720;-75
2023/12/03 12:55:55;;;;;;;;;;;;;;;;;;4979736;28;59637;-72
2023/12/03 12:58:20;;;;;;;;;;;;;;;;;;4979758;28;58514;-72
2023/12/03 13:00:45;;;;;;;;;;;;;;;;;;4976755;28;60103;-76
2023/12/03 13:03:10;;;;;;;;;;;;;;;;;;4978366;28;59781;-75
2023/12/03 13:05:35;;;;;;;;;;;;;;;;;;4979963;28;58358;-73
2023/12/03 13:08:01;;;;;;;;;;;;;;;;;;4979335;28;60318;-76
2023/12/03 13:10:26;;;;;;;;;;;;;;;;;;4980024;28;59875;-71
2023/12/03 13:12:51;;;;;;;;;;;;;;;;;;4980562;28;58530;-73
2023/12/03 13:15:17;;;;;;;;;;;;;;;;;;4979719;28;58462;-70
2023/12/03 13:17:42;;;;;;;;;;;;;;;;;;4978193;28;58530;-70
2023/12/03 13:20:09;;;;;;;;;;;;;;;;;;4979488;28;60672;-71
2023/12/03 13:22:34;;;;;;;;;;;;;;;;;;4977390;28;59963;-70
2023/12/03 13:24:59;;;;;;;;;;;;;;;;;;4980055;28;58302;-71
2023/12/03 13:27:24;;;;;;;;;;;;;;;;;;4979675;28;59423;-71
2023/12/03 13:29:49;;;;;;;;;;;;;;;;;;4978629;28;58436;-70
2023/12/03 13:32:15;;;;;;;;;;;;;;;;;;4979810;28;58352;-71
2023/12/03 13:34:40;;;;;;;;;;;;;;;;;;4977953;28;58370;-72
2023/12/03 13:37:05;;;;;;;;;;;;;;;;;;4982535;28;58441;-72
2023/12/03 13:39:30;;;;;;;;;;;;;;;;;;4980181;28;60553;-71
2023/12/03 13:41:55;;;;;;;;;;;;;;;;;;4981047;28;59019;-71
2023/12/03 13:44:20;;;;;;;;;;;;;;;;;;4980094;28;58263;-73
2023/12/03 13:46:45;;;;;;;;;;;;;;;;;;4975978;28;58953;-69
2023/12/03 13:49:11;;;;;;;;;;;;;;;;;;4980852;28;59220;-73
2023/12/03 13:51:36;;;;;;;;;;;;;;;;;;4976927;28;58170;-74
2023/12/03 13:54:01;;;;;;;;;;;;;;;;;;4980609;28;59326;-74
2023/12/03 13:56:26;;;;;;;;;;;;;;;;;;4979965;28;58924;-73
2023/12/03 13:58:51;;;;;;;;;;;;;;;;;;4980142;28;59310;-73
2023/12/03 14:01:16;;;;;;;;;;;;;;;;;;4978447;28;58614;-68
2023/12/03 14:03:41;;;;;;;;;;;;;;;;;;4978494;28;58447;-73
2023/12/03 14:06:06;;;;;;;;;;;;;;;;;;4976062;28;59599;-73
2023/12/03 14:08:32;;;;;;;;;;;;;;;;;;4978042;28;59877;-71
2023/12/03 14:10:57;;;;;;;;;;;;;;;;;;4979384;28;58370;-71
2023/12/03 14:13:22;;;;;;;;;;;;;;;;;;4978966;28;59396;-70
2023/12/03 14:15:47;;;;;;;;;;;;;;;;;;4980854;28;58804;-71
2023/12/03 14:18:12;;;;;;;;;;;;;;;;;;4971559;28;59940;-72
2023/12/03 14:20:37;;;;;;;;;;;;;;;;;;4956071;28;58765;-78
2023/12/03 14:23:02;;;;;;;;;;;;;;;;;;4961596;28;58451;-75
2023/12/03 14:25:27;;;;;;;;;;;;;;;;;;4958786;28;60582;-76
2023/12/03 14:27:52;;;;;;;;;;;;;;;;;;4970538;28;58980;-75
2023/12/03 14:30:18;;;;;;;;;;;;;;;;;;4979217;28;58418;-76
2023/12/03 14:32:43;;;;;;;;;;;;;;;;;;4978028;28;59286;-77
2023/12/03 14:35:09;;;;;;;;;;;;;;;;;;4981229;28;58837;-76
2023/12/03 14:37:35;;;;;;;;;;;;;;;;;;4983431;28;58411;-76
2023/12/03 14:40:00;;;;;;;;;;;;;;;;;;4980158;28;58825;-76
2023/12/03 14:42:25;;;;;;;;;;;;;;;;;;4980394;28;58921;-77
2023/12/03 14:44:50;;;;;;;;;;;;;;;;;;4981335;28;59546;-77
2023/12/03 14:47:16;;;;;;;;;;;;;;;;;;4980928;28;77687;-77
2023/12/03 14:49:41;;;;;;;;;;;;;;;;;;4983139;28;58403;-77
2023/12/03 14:52:06;;;;;;;;;;;;;;;;;;4980527;28;59525;-77
2023/12/03 14:54:31;;;;;;;;;;;;;;;;;;4980859;28;59012;-77
2023/12/03 14:56:56;;;;;;;;;;;;;;;;;;4984725;28;58306;-77
2023/12/03 14:59:21;;;;;;;;;;;;;;;;;;4985177;28;59759;-76
2023/12/03 15:01:46;;;;;;;;;;;;;;;;;;4983528;28;58448;-78
2023/12/03 15:04:11;;;;;;;;;;;;;;;;;;4984741;28;59288;-74
2023/12/03 15:06:37;;;;;;;;;;;;;;;;;;4982956;28;59859;-76
2023/12/03 15:09:02;;;;;;;;;;;;;;;;;;4982882;28;58340;-75
2023/12/03 15:11:27;;;;;;;;;;;;;;;;;;4984053;28;58472;-75
2023/12/03 15:13:52;;;;;;;;;;;;;;;;;;4985045;28;58817;-73
2023/12/03 15:16:17;;;;;;;;;;;;;;;;;;4984241;28;58146;-73
2023/12/03 15:18:42;;;;;;;;;;;;;;;;;;4985894;28;58493;-71
2023/12/03 15:21:07;;;;;;;;;;;;;;;;;;4982565;28;58406;-76
2023/12/03 15:23:33;;;;;;;;;;;;;;;;;;4984617;28;59676;-73
2023/12/03 15:25:59;;;;;;;;;;;;;;;;;;4983836;28;58985;-70
2023/12/03 15:28:25;;;;;;;;;;;;;;;;;;4983904;28;58177;-77
2023/12/03 15:30:50;;;;;;;;;;;;;;;;;;4982277;28;60420;-76
2023/12/03 15:33:15;;;;;;;;;;;;;;;;;;4981533;28;58950;-76
2023/12/03 15:35:40;;;;;;;;;;;;;;;;;;4983423;28;58461;-76
2023/12/03 15:38:05;;;;;;;;;;;;;;;;;;4984018;28;59423;-75
2023/12/03 15:40:30;;;;;;;;;;;;;;;;;;4981285;28;58928;-77
2023/12/03 15:42:55;;;;;;;;;;;;;;;;;;4981471;28;58727;-72
2023/12/03 15:45:20;;;;;;;;;;;;;;;;;;4982495;28;58959;-75
2023/12/03 15:47:46;;;;;;;;;;;;;;;;;;4982132;28;58383;-74
2023/12/03 15:50:11;;;;;;;;;;;;;;;;;;4987272;28;60243;-76
2023/12/03 15:52:36;;;;;;;;;;;;;;;;;;4982402;28;58472;-75
2023/12/03 15:55:02;;;;;;;;;;;;;;;;;;4984289;28;58306;-77
2023/12/03 15:57:27;;;;;;;;;;;;;;;;;;4983724;28;59326;-80
2023/12/03 15:59:52;;;;;;;;;;;;;;;;;;4982833;28;60307;-77
2023/12/03 16:02:18;;;;;;;;;;;;;;;;;;4981415;28;58200;-72
2023/12/03 16:04:44;;;;;;;;;;;;;;;;;;4981866;28;59348;-71
2023/12/03 16:07:09;;;;;;;;;;;;;;;;;;4981515;28;58654;-72
2023/12/03 16:09:34;;;;;;;;;;;;;;;;;;4981501;28;60186;-71
2023/12/03 16:11:59;;;;;;;;;;;;;;;;;;4980933;28;58823;-72
2023/12/03 16:14:24;;;;;;;;;;;;;;;;;;4980485;28;58194;-71
2023/12/03 16:16:50;;;;;;;;;;;;;;;;;;4978853;28;59367;-72
2023/12/03 16:19:15;;;;;;;;;;;;;;;;;;4979366;28;59736;-71
2023/12/03 16:21:40;;;;;;;;;;;;;;;;;;4980289;28;58011;-78
2023/12/03 16:24:05;;;;;;;;;;;;;;;;;;4981608;28;59441;-73
2023/12/03 16:26:30;;;;;;;;;;;;;;;;;;4978746;28;58399;-73
2023/12/03 16:28:55;;;;;;;;;;;;;;;;;;4979070;28;58497;-73
2023/12/03 16:31:20;;;;;;;;;;;;;;;;;;4981129;28;59025;-72